createdAt,value
2017-09-30T00:02:21.673Z,68.04
2017-09-30T00:04:51.129Z,67.98
2017-09-30T00:07:21.105Z,67.77
2017-09-30T00:09:49.850Z,67.83
2017-09-30T00:12:18.822Z,68.08
2017-09-30T00:14:47.798Z,67.94
2017-09-30T00:17:15.574Z,67.82
2017-09-30T00:19:43.252Z,67.85
2017-09-30T00:22:11.432Z,68.55
2017-09-30T00:24:39.130Z,68.73
2017-09-30T00:27:06.708Z,68.52
2017-09-30T00:29:34.231Z,68.54
2017-09-30T00:32:03.162Z,68.69
2017-09-30T00:34:31.502Z,69.00
2017-09-30T00:37:02.155Z,68.38
2017-09-30T00:39:30.103Z,68.48
2017-09-30T00:41:57.767Z,68.42
2017-09-30T00:44:25.842Z,68.54
2017-09-30T00:46:53.685Z,68.52
2017-09-30T00:49:21.436Z,68.52
2017-09-30T00:51:49.861Z,68.59
2017-09-30T00:54:17.538Z,68.46
2017-09-30T00:56:45.469Z,68.54
2017-09-30T00:59:15.147Z,68.70
2017-09-30T01:01:43.804Z,68.68
2017-09-30T01:04:11.323Z,69.01
2017-09-30T01:06:38.883Z,69.15
2017-09-30T01:09:06.440Z,69.11
2017-09-30T01:11:34.001Z,68.86
2017-09-30T01:14:01.788Z,69.10
2017-09-30T01:16:29.891Z,69.31
2017-09-30T01:18:57.429Z,69.49
2017-09-30T01:21:26.201Z,69.51
2017-09-30T01:23:53.788Z,69.88
2017-09-30T01:26:21.335Z,69.87
2017-09-30T01:28:48.876Z,69.78
2017-09-30T01:31:16.445Z,69.86
2017-09-30T01:33:44.056Z,69.56
2017-09-30T01:36:11.651Z,70.10
2017-09-30T01:38:39.254Z,69.83
2017-09-30T01:41:06.849Z,70.21
2017-09-30T01:43:34.881Z,70.05
2017-09-30T01:46:02.851Z,69.90
2017-09-30T01:48:30.588Z,69.81
2017-09-30T01:50:58.927Z,69.89
2017-09-30T01:53:26.518Z,69.94
2017-09-30T01:55:54.565Z,70.28
2017-09-30T01:58:22.345Z,70.26
2017-09-30T02:00:50.039Z,70.04
2017-09-30T02:03:17.633Z,69.87
2017-09-30T02:05:45.230Z,70.11
2017-09-30T02:08:13.267Z,70.06
2017-09-30T02:10:41.019Z,70.16
2017-09-30T02:13:09.354Z,70.34
2017-09-30T02:15:38.520Z,70.70
2017-09-30T02:18:06.117Z,70.54
2017-09-30T02:20:33.677Z,70.93
2017-09-30T02:23:01.732Z,70.68
2017-09-30T02:25:30.614Z,70.66
2017-09-30T02:27:58.376Z,70.58
2017-09-30T02:30:26.177Z,70.60
2017-09-30T02:32:54.772Z,70.57
2017-09-30T02:35:22.657Z,70.43
2017-09-30T02:37:50.434Z,70.49
2017-09-30T02:40:19.379Z,70.45
2017-09-30T02:42:47.933Z,70.43
2017-09-30T02:45:16.128Z,70.56
2017-09-30T02:47:44.923Z,70.51
2017-09-30T02:50:13.701Z,70.42
2017-09-30T02:52:41.318Z,70.53
2017-09-30T02:55:09.196Z,71.15
2017-09-30T02:57:36.990Z,71.67
2017-09-30T03:00:06.933Z,72.06
2017-09-30T03:02:35.686Z,71.94
2017-09-30T03:05:03.379Z,72.79
2017-09-30T03:07:31.069Z,72.53
2017-09-30T03:09:58.696Z,72.43
2017-09-30T03:12:31.610Z,72.58
2017-09-30T03:15:00.311Z,72.31
2017-09-30T03:17:29.394Z,72.30
2017-09-30T03:19:57.565Z,72.15
2017-09-30T03:22:25.603Z,71.95
2017-09-30T03:24:53.521Z,71.66
2017-09-30T03:27:21.270Z,71.32
2017-09-30T03:29:49.295Z,71.24
2017-09-30T03:32:17.250Z,71.44
2017-09-30T03:34:44.832Z,71.42
2017-09-30T03:37:12.384Z,71.31
2017-09-30T03:39:39.906Z,71.48
2017-09-30T03:42:07.485Z,71.42
2017-09-30T03:44:35.658Z,71.49
2017-09-30T03:47:04.391Z,71.29
2017-09-30T03:49:32.174Z,71.35
2017-09-30T03:51:59.787Z,71.65
2017-09-30T03:54:27.406Z,71.86
2017-09-30T03:56:54.983Z,71.94
2017-09-30T03:59:22.570Z,71.86
2017-09-30T04:01:50.159Z,71.74
2017-09-30T04:04:18.080Z,72.05
2017-09-30T04:06:46.383Z,72.00
2017-09-30T04:09:15.368Z,71.82
2017-09-30T04:11:48.107Z,72.31
2017-09-30T04:14:15.625Z,72.13
2017-09-30T04:19:17.899Z,72.01
2017-09-30T04:21:46.203Z,72.05
2017-09-30T04:24:14.708Z,72.16
2017-09-30T04:26:47.449Z,71.90
2017-09-30T04:29:18.507Z,71.87
2017-09-30T04:31:52.984Z,71.78
2017-09-30T04:34:35.234Z,71.89
2017-09-30T04:39:40.954Z,72.16
2017-09-30T04:45:40.868Z,72.75
2017-09-30T04:48:08.408Z,72.79
2017-09-30T04:50:35.998Z,73.04
2017-09-30T04:53:03.545Z,73.11
2017-09-30T04:55:31.319Z,73.21
2017-09-30T04:57:58.864Z,73.22
2017-09-30T05:00:28.631Z,73.33
2017-09-30T05:02:57.407Z,73.08
2017-09-30T05:05:25.087Z,73.46
2017-09-30T05:07:54.229Z,73.70
2017-09-30T05:10:21.710Z,73.78
2017-09-30T05:12:50.578Z,73.86
2017-09-30T05:15:18.714Z,74.00
2017-09-30T05:17:46.246Z,74.09
2017-09-30T05:20:13.891Z,73.98
2017-09-30T05:22:41.387Z,73.71
2017-09-30T05:25:09.986Z,73.46
2017-09-30T05:27:37.692Z,73.19
2017-09-30T05:30:06.757Z,73.14
2017-09-30T05:32:34.286Z,73.27
2017-09-30T05:35:01.818Z,73.28
2017-09-30T05:37:29.316Z,73.18
2017-09-30T05:39:56.825Z,73.08
2017-09-30T05:42:24.384Z,72.84
2017-09-30T05:44:51.919Z,72.47
2017-09-30T05:47:19.464Z,72.25
2017-09-30T05:49:48.334Z,72.13
2017-09-30T05:52:15.980Z,71.98
2017-09-30T05:54:44.632Z,71.85
2017-09-30T05:57:12.228Z,71.71
2017-09-30T05:59:39.789Z,71.72
2017-09-30T06:02:07.422Z,71.56
2017-09-30T06:04:35.382Z,71.57
2017-09-30T06:07:03.096Z,71.50
2017-09-30T06:09:30.671Z,71.77
2017-09-30T06:11:58.161Z,72.00
2017-09-30T06:14:25.792Z,71.83
2017-09-30T06:16:53.362Z,71.73
2017-09-30T06:19:21.005Z,71.88
2017-09-30T06:21:48.588Z,72.07
2017-09-30T06:24:16.120Z,71.84
2017-09-30T06:26:43.691Z,71.64
2017-09-30T06:29:11.256Z,71.49
2017-09-30T06:31:38.834Z,71.47
2017-09-30T06:34:13.651Z,71.51
2017-09-30T06:36:53.025Z,71.53
2017-09-30T06:39:25.853Z,71.59
2017-09-30T06:41:55.873Z,71.39
2017-09-30T06:44:24.976Z,72.09
2017-09-30T06:46:52.615Z,73.47
2017-09-30T06:52:04.668Z,72.74
2017-09-30T06:54:32.237Z,73.02
2017-09-30T06:56:59.819Z,72.89
2017-09-30T06:59:27.386Z,73.40
2017-09-30T07:01:55.067Z,72.89
2017-09-30T07:04:22.628Z,72.82
2017-09-30T07:07:14.829Z,72.29
2017-09-30T07:09:52.385Z,72.33
2017-09-30T07:12:22.271Z,72.02
2017-09-30T07:14:52.055Z,71.52
2017-09-30T07:17:19.646Z,71.05
2017-09-30T07:19:47.355Z,71.31
2017-09-30T07:22:14.937Z,70.82
2017-09-30T07:24:42.468Z,70.61
2017-09-30T07:27:09.990Z,70.50
2017-09-30T07:29:46.664Z,70.58
2017-09-30T07:32:14.280Z,70.70
2017-09-30T07:34:47.514Z,70.57
2017-09-30T07:37:15.018Z,69.95
2017-09-30T07:39:42.568Z,62.15
2017-09-30T07:42:10.151Z,51.54
2017-09-30T07:44:37.664Z,45.37
2017-09-30T07:47:05.189Z,40.68
2017-09-30T07:49:32.916Z,38.38
2017-09-30T07:52:01.957Z,38.32
2017-09-30T07:54:29.913Z,36.41
2017-09-30T07:57:10.493Z,39.89
2017-09-30T07:59:38.006Z,42.77
2017-09-30T08:02:15.772Z,45.73
2017-09-30T08:04:43.258Z,46.79
2017-09-30T08:07:12.534Z,46.25
2017-09-30T08:09:40.121Z,46.37
2017-09-30T08:12:07.714Z,47.94
2017-09-30T08:14:35.216Z,48.08
2017-09-30T08:17:03.170Z,48.48
2017-09-30T08:19:30.672Z,48.21
2017-09-30T08:21:58.159Z,48.11
2017-09-30T08:24:25.775Z,48.88
2017-09-30T08:26:53.312Z,48.18
2017-09-30T08:29:20.849Z,49.32
2017-09-30T08:31:48.360Z,48.16
2017-09-30T08:34:16.092Z,46.20
2017-09-30T08:36:43.656Z,44.82
2017-09-30T08:39:11.199Z,42.78
2017-09-30T08:41:46.915Z,39.22
2017-09-30T08:44:15.233Z,37.32
2017-09-30T08:46:43.905Z,33.86
2017-09-30T08:49:11.929Z,32.10
2017-09-30T08:51:39.444Z,31.91
2017-09-30T08:54:07.009Z,34.96
2017-09-30T08:56:34.559Z,38.16
2017-09-30T08:59:02.236Z,38.72
2017-09-30T09:01:29.779Z,37.33
2017-09-30T09:03:57.294Z,34.00
2017-09-30T09:06:24.966Z,30.44
2017-09-30T09:08:52.695Z,28.81
2017-09-30T09:11:20.271Z,26.72
2017-09-30T09:16:21.535Z,28.72
2017-09-30T09:18:49.046Z,28.75
2017-09-30T09:21:16.915Z,32.72
2017-09-30T09:23:44.502Z,35.79
2017-09-30T09:26:12.447Z,37.31
2017-09-30T09:28:40.090Z,40.11
2017-09-30T09:31:09.168Z,41.17
2017-09-30T09:33:36.761Z,41.57
2017-09-30T09:36:05.221Z,41.38
2017-09-30T09:38:32.832Z,42.94
2017-09-30T09:41:00.454Z,43.87
2017-09-30T09:43:27.935Z,43.98
2017-09-30T09:45:55.448Z,44.44
2017-09-30T09:48:23.032Z,44.53
2017-09-30T09:50:50.569Z,44.68
2017-09-30T09:53:18.203Z,45.18
2017-09-30T09:55:45.736Z,44.16
2017-09-30T09:58:13.413Z,42.41
2017-09-30T10:00:40.929Z,41.22
2017-09-30T10:03:08.606Z,38.33
2017-09-30T10:05:38.682Z,35.20
2017-09-30T10:08:06.830Z,32.60
2017-09-30T10:10:34.660Z,29.33
2017-09-30T10:13:04.033Z,27.68
2017-09-30T10:15:31.560Z,26.62
2017-09-30T10:17:59.107Z,23.81
2017-09-30T10:20:27.732Z,23.76
2017-09-30T10:22:55.260Z,22.68
2017-09-30T10:25:23.228Z,23.08
2017-09-30T10:27:50.825Z,22.69
2017-09-30T10:30:18.314Z,21.93
2017-09-30T10:32:46.070Z,21.87
2017-09-30T10:35:13.596Z,22.14
2017-09-30T10:37:41.965Z,21.58
2017-09-30T10:40:09.577Z,21.02
2017-09-30T10:42:37.202Z,20.52
2017-09-30T10:45:04.867Z,20.17
2017-09-30T10:47:32.542Z,20.22
2017-09-30T10:50:00.082Z,20.24
2017-09-30T10:52:27.595Z,19.67
2017-09-30T10:54:55.148Z,20.26
2017-09-30T10:57:26.130Z,20.78
2017-09-30T10:59:53.628Z,19.92
2017-09-30T11:02:21.139Z,19.36
2017-09-30T11:04:48.651Z,19.78
2017-09-30T11:07:16.210Z,19.87
2017-09-30T11:09:43.753Z,18.61
2017-09-30T11:12:11.212Z,19.31
2017-09-30T11:14:38.781Z,19.78
2017-09-30T11:17:06.277Z,22.40
2017-09-30T11:19:34.862Z,23.04
2017-09-30T11:22:02.379Z,23.09
2017-09-30T11:24:29.940Z,24.22
2017-09-30T11:26:57.771Z,24.59
2017-09-30T11:29:25.585Z,26.52
2017-09-30T11:31:57.164Z,27.59
2017-09-30T11:34:24.882Z,27.46
2017-09-30T11:36:52.477Z,27.27
2017-09-30T11:39:20.289Z,26.50
2017-09-30T11:41:52.652Z,26.09
2017-09-30T11:44:28.307Z,23.53
2017-09-30T11:46:55.969Z,21.13
2017-09-30T11:49:25.985Z,20.42
2017-09-30T11:51:53.542Z,19.83
2017-09-30T11:54:21.058Z,19.06
2017-09-30T11:57:01.277Z,18.49
2017-09-30T11:59:28.871Z,17.62
2017-09-30T12:02:00.678Z,17.82
2017-09-30T12:04:31.686Z,19.37
2017-09-30T12:06:59.283Z,17.33
2017-09-30T12:09:27.200Z,19.96
2017-09-30T12:11:54.845Z,21.06
2017-09-30T12:14:23.895Z,21.17
2017-09-30T12:16:51.575Z,21.51
2017-09-30T12:19:19.216Z,21.32
2017-09-30T12:24:45.219Z,20.30
2017-09-30T12:27:12.807Z,20.01
2017-09-30T12:29:41.824Z,20.58
2017-09-30T12:32:10.334Z,19.83
2017-09-30T12:34:38.017Z,20.42
2017-09-30T12:37:06.529Z,19.73
2017-09-30T12:39:34.229Z,18.94
2017-09-30T12:42:02.252Z,18.83
2017-09-30T12:44:30.289Z,19.18
2017-09-30T12:46:59.221Z,20.81
2017-09-30T12:49:29.475Z,20.50
2017-09-30T12:51:57.137Z,20.67
2017-09-30T12:54:25.319Z,21.34
2017-09-30T12:56:55.563Z,22.74
2017-09-30T12:59:23.282Z,21.86
2017-09-30T13:01:50.824Z,21.92
2017-09-30T13:04:18.326Z,22.80
2017-09-30T13:06:45.855Z,23.40
2017-09-30T13:09:13.437Z,23.62
2017-09-30T13:11:40.956Z,23.72
2017-09-30T13:14:08.483Z,24.51
2017-09-30T13:16:36.213Z,24.71
2017-09-30T13:19:03.807Z,24.88
2017-09-30T13:21:31.357Z,24.60
2017-09-30T13:23:58.900Z,24.91
2017-09-30T13:26:26.421Z,25.12
2017-09-30T13:28:53.991Z,25.55
2017-09-30T13:31:21.585Z,25.78
2017-09-30T13:33:49.093Z,25.62
2017-09-30T13:36:16.628Z,27.26
2017-09-30T13:38:44.139Z,27.47
2017-09-30T13:41:11.676Z,30.64
2017-09-30T13:43:40.259Z,31.25
2017-09-30T13:46:08.313Z,33.53
2017-09-30T13:48:35.829Z,34.66
2017-09-30T13:51:03.328Z,36.51
2017-09-30T13:53:30.972Z,35.91
2017-09-30T13:56:00.490Z,37.49
2017-09-30T13:58:28.179Z,37.70
2017-09-30T14:00:55.720Z,38.51
2017-09-30T14:03:23.950Z,38.84
2017-09-30T14:05:51.489Z,39.42
2017-09-30T14:08:19.004Z,41.85
2017-09-30T14:10:46.604Z,40.89
2017-09-30T14:13:14.284Z,41.60
2017-09-30T14:15:42.071Z,42.14
2017-09-30T14:18:09.831Z,42.54
2017-09-30T14:23:16.971Z,43.85
2017-09-30T14:25:44.468Z,43.03
2017-09-30T14:28:12.037Z,44.41
2017-09-30T14:30:41.453Z,44.69
2017-09-30T14:33:09.012Z,44.58
2017-09-30T14:35:36.536Z,47.68
2017-09-30T14:38:04.094Z,47.94
2017-09-30T14:40:31.649Z,48.94
2017-09-30T14:42:59.204Z,48.00
2017-09-30T14:45:28.687Z,48.53
2017-09-30T14:47:56.459Z,49.26
2017-09-30T14:50:23.977Z,49.02
2017-09-30T14:58:12.926Z,51.30
2017-09-30T15:00:41.053Z,51.18
2017-09-30T15:03:08.687Z,50.23
2017-09-30T15:08:11.409Z,51.23
2017-09-30T15:10:38.919Z,52.09
2017-09-30T15:13:06.504Z,54.90
2017-09-30T15:15:34.255Z,57.27
2017-09-30T15:18:01.854Z,59.11
2017-09-30T15:20:29.363Z,62.05
2017-09-30T15:22:56.917Z,63.53
2017-09-30T15:25:24.517Z,64.43
2017-09-30T15:27:52.056Z,65.60
2017-09-30T15:30:19.610Z,63.85
2017-09-30T15:32:47.213Z,63.46
2017-09-30T15:35:14.750Z,64.35
2017-09-30T15:37:42.295Z,64.19
2017-09-30T15:43:17.717Z,63.32
2017-09-30T15:45:47.244Z,64.48
2017-09-30T15:48:15.016Z,61.07
2017-09-30T15:50:42.727Z,62.99
2017-09-30T15:53:11.394Z,63.04
2017-09-30T15:55:39.047Z,63.41
2017-09-30T15:58:06.559Z,63.21
2017-09-30T16:00:34.027Z,65.10
2017-09-30T16:06:56.882Z,66.18
2017-09-30T16:09:24.559Z,67.12
2017-09-30T16:11:58.567Z,67.81
2017-09-30T16:17:01.840Z,65.21
2017-09-30T16:19:29.681Z,62.05
2017-09-30T16:21:57.252Z,63.63
2017-09-30T16:24:24.762Z,63.02
2017-09-30T16:27:12.052Z,61.71
